Ashford, Washington
Current Conditions -  °F | °C
As of 11:58 PM on Saturday 25 Oct 2014 (Local Time) from KGRF Reporting Station
Heavy Rain Heavy Rain  
Wind Chill: 10°   Ceiling: Unl
Heat Index: 10°   Visibility: 10mi
Dew Point:   Wind: 10mph
Humidity: 89%   Direction: 160°SSE
Pressure: 29.79"   Gusts: NA
Location:  46.76°N, 122.03°W
Report Text: KGRF 260658Z AUTO 16009KT 10SM +RA FEW027 SCT060 10/09 A2979 RMK AO2 SLP092 P0001 T01030086 $
Loading
Personal Weather Stations






























Interactive Weather Map
Tropical Storm Tracking
New forecast layout! Learn more

10-Day Weather Forecast

Advertisements
Track Severe Weather on mobile